createdAt,value
2023-04-18T00:01:23.788Z,5.62
2023-04-18T00:03:51.230Z,5.63
2023-04-18T00:06:21.075Z,5.56
2023-04-18T00:08:47.850Z,5.44
2023-04-18T00:11:14.364Z,5.46
2023-04-18T00:13:40.907Z,5.57
2023-04-18T00:16:13.259Z,5.56
2023-04-18T00:18:40.115Z,5.60
2023-04-18T00:21:08.499Z,5.69
2023-04-18T00:23:35.753Z,5.74
2023-04-18T00:26:02.280Z,5.62
2023-04-18T00:28:28.876Z,5.44
2023-04-18T00:30:55.495Z,5.51
2023-04-18T00:33:23.198Z,5.37
2023-04-18T00:35:51.648Z,5.24
2023-04-18T00:38:18.150Z,5.32
2023-04-18T00:40:44.681Z,5.41
2023-04-18T00:43:14.027Z,5.42
2023-04-18T00:45:40.792Z,5.52
2023-04-18T00:48:07.559Z,5.56
2023-04-18T00:50:34.685Z,5.60
2023-04-18T00:53:01.564Z,5.67
2023-04-18T00:55:29.446Z,5.68
2023-04-18T00:57:56.178Z,5.55
2023-04-18T01:00:24.511Z,5.49
2023-04-18T01:02:53.221Z,5.36
2023-04-18T01:05:21.328Z,5.41
2023-04-18T01:07:47.899Z,5.43
2023-04-18T01:10:14.568Z,5.33
2023-04-18T01:12:41.738Z,5.25
2023-04-18T01:15:08.625Z,5.34
2023-04-18T01:17:36.314Z,5.13
2023-04-18T01:20:06.130Z,5.11
2023-04-18T01:22:33.580Z,5.06
2023-04-18T01:25:00.181Z,5.03
2023-04-18T01:27:26.867Z,5.10
2023-04-18T01:29:53.589Z,5.23
2023-04-18T01:32:20.673Z,5.27
2023-04-18T01:34:47.740Z,5.26
2023-04-18T01:37:14.416Z,5.36
2023-04-18T01:39:40.948Z,5.32
2023-04-18T01:42:07.504Z,5.33
2023-04-18T01:44:34.166Z,5.30
2023-04-18T01:47:00.758Z,5.23
2023-04-18T01:49:27.311Z,5.21
2023-04-18T01:51:53.808Z,5.21
2023-04-18T01:54:21.330Z,5.24
2023-04-18T01:56:47.923Z,5.30
2023-04-18T01:59:14.486Z,5.37
2023-04-18T02:01:41.057Z,5.36
2023-04-18T02:04:07.711Z,5.47
2023-04-18T02:06:34.332Z,5.51
2023-04-18T02:09:00.985Z,5.23
2023-04-18T02:11:27.594Z,5.14
2023-04-18T02:13:54.256Z,5.10
2023-04-18T02:16:21.023Z,5.18
2023-04-18T02:18:47.731Z,5.11
2023-04-18T02:21:14.418Z,5.14
2023-04-18T02:23:41.141Z,5.19
2023-04-18T02:26:07.756Z,5.09
2023-04-18T02:28:34.634Z,5.02
2023-04-18T02:31:03.172Z,5.01
2023-04-18T02:33:29.974Z,5.08
2023-04-18T02:35:56.666Z,4.95
2023-04-18T02:38:23.373Z,5.03
2023-04-18T02:40:52.104Z,5.14
2023-04-18T02:43:20.680Z,4.98
2023-04-18T02:45:47.394Z,5.00
2023-04-18T02:48:14.671Z,5.16
2023-04-18T02:50:41.650Z,5.30
2023-04-18T02:53:08.392Z,5.26
2023-04-18T02:55:49.613Z,5.24
2023-04-18T02:58:17.100Z,5.29
2023-04-18T03:01:09.817Z,5.42
2023-04-18T03:03:59.739Z,5.47
2023-04-18T03:06:47.919Z,5.53
2023-04-18T03:09:15.730Z,5.48
2023-04-18T03:11:47.075Z,5.52
2023-04-18T03:14:14.853Z,5.59
2023-04-18T03:16:48.944Z,5.65
2023-04-18T03:19:19.923Z,5.60
2023-04-18T03:21:46.750Z,5.53
2023-04-18T03:24:13.740Z,5.46
2023-04-18T03:26:43.089Z,5.58
2023-04-18T03:29:10.401Z,5.59
2023-04-18T03:31:37.144Z,5.64
2023-04-18T03:34:04.177Z,5.65
2023-04-18T03:36:31.404Z,5.67
2023-04-18T03:38:58.658Z,5.39
2023-04-18T03:41:26.440Z,5.40
2023-04-18T03:43:55.797Z,5.39
2023-04-18T03:46:24.607Z,5.44
2023-04-18T03:48:53.790Z,5.49
2023-04-18T03:51:21.269Z,5.44
2023-04-18T03:53:48.126Z,5.44
2023-04-18T03:56:16.621Z,5.44
2023-04-18T03:58:51.662Z,5.44
2023-04-18T04:01:20.271Z,5.47
2023-04-18T04:03:47.072Z,5.48
2023-04-18T04:06:14.281Z,5.42
2023-04-18T04:08:41.541Z,5.38
2023-04-18T04:11:08.226Z,5.43
2023-04-18T04:13:36.063Z,5.40
2023-04-18T04:16:02.979Z,5.32
2023-04-18T04:18:31.517Z,5.29
2023-04-18T04:21:00.827Z,5.18
2023-04-18T04:23:53.636Z,5.21
2023-04-18T04:26:35.707Z,4.90
2023-04-18T04:29:13.960Z,4.90
2023-04-18T04:31:42.699Z,5.00
2023-04-18T04:34:09.729Z,5.13
2023-04-18T04:36:36.452Z,5.18
2023-04-18T04:39:05.897Z,5.12
2023-04-18T04:41:53.467Z,5.12
2023-04-18T04:44:26.121Z,5.17
2023-04-18T04:46:54.590Z,5.19
2023-04-18T04:49:25.285Z,5.24
2023-04-18T04:51:52.127Z,5.22
2023-04-18T04:54:20.045Z,5.03
2023-04-18T04:56:47.041Z,5.00
2023-04-18T04:59:14.151Z,5.02
2023-04-18T05:01:44.236Z,5.01
2023-04-18T05:04:11.474Z,5.09
2023-04-18T05:06:40.262Z,5.22
2023-04-18T05:09:07.177Z,5.22
2023-04-18T05:11:33.818Z,5.21
2023-04-18T05:14:00.510Z,5.18
2023-04-18T05:16:27.187Z,4.97
2023-04-18T05:18:53.955Z,4.84
2023-04-18T05:21:20.717Z,4.82
2023-04-18T05:23:47.448Z,4.82
2023-04-18T05:26:14.128Z,4.79
2023-04-18T05:28:41.484Z,4.72
2023-04-18T05:31:08.426Z,4.63
2023-04-18T05:33:35.316Z,4.70
2023-04-18T05:36:02.213Z,4.77
2023-04-18T05:38:28.944Z,4.80
2023-04-18T05:40:56.083Z,4.60
2023-04-18T05:43:23.116Z,4.46
2023-04-18T05:45:52.342Z,4.48
2023-04-18T05:48:19.385Z,4.60
2023-04-18T05:50:46.130Z,4.56
2023-04-18T05:53:13.158Z,4.70
2023-04-18T05:55:40.953Z,4.70
2023-04-18T05:58:07.894Z,4.72
2023-04-18T06:00:36.036Z,4.77
2023-04-18T06:03:03.000Z,4.75
2023-04-18T06:05:30.331Z,4.93
2023-04-18T06:07:57.895Z,5.07
2023-04-18T06:10:24.668Z,5.11
2023-04-18T06:12:51.468Z,5.09
2023-04-18T06:15:18.304Z,5.08
2023-04-18T06:17:45.131Z,5.02
2023-04-18T06:20:12.102Z,5.00
2023-04-18T06:22:38.837Z,5.01
2023-04-18T06:25:06.071Z,4.97
2023-04-18T06:27:32.956Z,5.01
2023-04-18T06:29:59.706Z,5.13
2023-04-18T06:32:26.671Z,5.18
2023-04-18T06:34:53.755Z,5.08
2023-04-18T06:37:20.706Z,5.15
2023-04-18T06:39:47.537Z,5.23
2023-04-18T06:42:14.333Z,5.19
2023-04-18T06:44:44.670Z,5.09
2023-04-18T06:47:11.585Z,5.06
2023-04-18T06:49:38.313Z,5.08
2023-04-18T06:52:05.160Z,5.14
2023-04-18T06:54:31.833Z,5.11
2023-04-18T06:56:59.385Z,5.10
2023-04-18T06:59:26.802Z,5.15
2023-04-18T07:01:53.741Z,5.15
2023-04-18T07:04:20.792Z,5.24
2023-04-18T07:06:47.778Z,5.32
2023-04-18T07:09:14.473Z,5.28
2023-04-18T07:11:41.245Z,5.19
2023-04-18T07:14:08.051Z,5.10
2023-04-18T07:16:34.882Z,5.07
2023-04-18T07:19:01.676Z,5.06
2023-04-18T07:21:28.320Z,5.06
2023-04-18T07:23:55.361Z,5.23
2023-04-18T07:26:22.265Z,5.36
2023-04-18T07:28:49.345Z,5.38
2023-04-18T07:31:16.510Z,5.35
2023-04-18T07:33:43.552Z,5.25
2023-04-18T07:36:10.417Z,5.32
2023-04-18T07:38:37.233Z,5.37
2023-04-18T07:41:04.112Z,5.32
2023-04-18T07:43:30.898Z,5.31
2023-04-18T07:45:57.603Z,5.34
2023-04-18T07:48:25.508Z,5.34
2023-04-18T07:50:52.619Z,5.46
2023-04-18T07:53:19.860Z,5.46
2023-04-18T07:55:46.919Z,5.39
2023-04-18T07:58:14.351Z,5.39
2023-04-18T08:00:42.635Z,5.51
2023-04-18T08:03:12.817Z,5.20
2023-04-18T08:05:41.171Z,5.13
2023-04-18T08:08:11.797Z,5.19
2023-04-18T08:10:38.613Z,5.28
2023-04-18T08:13:06.388Z,5.40
2023-04-18T08:15:33.149Z,5.42
2023-04-18T08:18:00.965Z,5.52
2023-04-18T08:20:28.944Z,5.44
2023-04-18T08:25:25.732Z,5.33
2023-04-18T08:27:52.457Z,5.27
2023-04-18T08:30:19.265Z,5.29
2023-04-18T08:32:46.034Z,5.38
2023-04-18T08:35:12.803Z,5.44
2023-04-18T08:37:39.463Z,5.36
2023-04-18T08:40:07.490Z,5.39
2023-04-18T08:42:35.329Z,5.36
2023-04-18T08:45:02.605Z,5.15
2023-04-18T08:47:30.077Z,5.18
2023-04-18T08:49:57.399Z,5.26
2023-04-18T08:52:25.914Z,5.20
2023-04-18T08:54:52.559Z,5.29
2023-04-18T08:57:26.851Z,5.29
2023-04-18T08:59:55.379Z,5.34
2023-04-18T09:02:28.592Z,5.16
2023-04-18T09:04:55.843Z,5.32
2023-04-18T09:07:29.570Z,5.40
2023-04-18T09:09:57.359Z,5.19
2023-04-18T09:12:26.366Z,5.15
2023-04-18T09:15:09.434Z,5.19
2023-04-18T09:17:41.683Z,5.21
2023-04-18T09:20:10.931Z,5.39
2023-04-18T09:22:51.433Z,5.40
2023-04-18T09:25:40.789Z,5.28
2023-04-18T09:28:28.914Z,5.41
2023-04-18T09:30:57.600Z,5.45
2023-04-18T09:33:32.537Z,5.49
2023-04-18T09:36:37.365Z,5.57
2023-04-18T09:39:04.151Z,5.38
2023-04-18T09:41:32.604Z,5.31
2023-04-18T09:44:14.529Z,5.32
2023-04-18T09:46:44.489Z,5.38
2023-04-18T09:49:12.971Z,5.41
2023-04-18T09:51:41.674Z,5.42
2023-04-18T09:54:11.059Z,5.56
2023-04-18T09:56:42.236Z,5.65
2023-04-18T09:59:09.899Z,5.69
2023-04-18T10:01:37.505Z,5.62
2023-04-18T10:04:06.732Z,5.66
2023-04-18T10:06:35.166Z,5.53
2023-04-18T10:09:05.971Z,5.53
2023-04-18T10:11:32.948Z,5.65
2023-04-18T10:14:04.690Z,5.81
2023-04-18T10:16:34.099Z,5.87
2023-04-18T10:19:26.269Z,5.77
2023-04-18T10:21:58.431Z,5.93
2023-04-18T10:24:52.856Z,6.06
2023-04-18T10:27:48.659Z,6.11
2023-04-18T10:30:16.667Z,6.14
2023-04-18T10:32:43.502Z,6.33
2023-04-18T10:35:10.789Z,6.35
2023-04-18T10:37:50.861Z,6.34
2023-04-18T10:40:32.390Z,6.53
2023-04-18T10:43:06.933Z,6.45
2023-04-18T10:45:43.075Z,6.57
2023-04-18T10:48:43.091Z,6.78
2023-04-18T10:51:21.930Z,6.78
2023-04-18T10:54:00.790Z,6.74
2023-04-18T10:56:29.011Z,6.63
2023-04-18T10:59:01.222Z,6.72
2023-04-18T11:01:32.777Z,6.88
2023-04-18T11:04:00.899Z,6.92
2023-04-18T11:06:28.509Z,6.91
2023-04-18T11:09:14.571Z,7.05
2023-04-18T11:11:41.927Z,7.07
2023-04-18T11:14:08.677Z,7.22
2023-04-18T11:16:35.428Z,7.03
2023-04-18T11:19:21.447Z,7.10
2023-04-18T11:21:48.295Z,7.31
2023-04-18T11:24:24.619Z,7.50
2023-04-18T11:26:55.741Z,7.51
2023-04-18T11:29:23.039Z,7.64
2023-04-18T11:31:52.442Z,7.87
2023-04-18T11:34:19.940Z,7.92
2023-04-18T11:36:51.283Z,7.85
2023-04-18T11:39:19.059Z,7.95
2023-04-18T11:41:50.505Z,7.96
2023-04-18T11:44:18.560Z,8.13
2023-04-18T11:46:45.235Z,7.70
2023-04-18T11:49:32.286Z,7.85
2023-04-18T11:52:00.108Z,7.85
2023-04-18T11:54:44.238Z,8.14
2023-04-18T11:57:28.679Z,8.28
2023-04-18T12:00:00.841Z,8.51
2023-04-18T12:02:49.509Z,9.08
2023-04-18T12:05:32.778Z,9.18
2023-04-18T12:08:09.869Z,9.48
2023-04-18T12:10:50.903Z,9.66
2023-04-18T12:13:18.597Z,9.85
2023-04-18T12:15:47.166Z,10.16
2023-04-18T12:18:18.047Z,10.13
2023-04-18T12:20:50.579Z,9.84
2023-04-18T12:23:38.911Z,9.80
2023-04-18T12:26:12.239Z,9.81
2023-04-18T12:28:39.065Z,9.87
2023-04-18T12:31:07.303Z,10.21
2023-04-18T12:33:36.763Z,10.18
2023-04-18T12:36:05.550Z,10.00
2023-04-18T12:38:32.330Z,10.13
2023-04-18T12:40:59.038Z,10.32
2023-04-18T12:43:26.001Z,10.39
2023-04-18T12:45:52.702Z,10.62
2023-04-18T12:48:19.645Z,10.57
2023-04-18T12:50:46.531Z,10.36
2023-04-18T12:53:13.471Z,9.99
2023-04-18T12:55:40.516Z,9.89
2023-04-18T12:58:07.469Z,9.82
2023-04-18T13:00:34.424Z,9.93
2023-04-18T13:03:01.499Z,10.19
2023-04-18T13:05:32.978Z,10.37
2023-04-18T13:10:34.744Z,10.40
2023-04-18T13:13:01.958Z,10.33
2023-04-18T13:15:31.741Z,10.47
2023-04-18T13:18:05.411Z,11.14
2023-04-18T13:20:44.603Z,11.89
2023-04-18T13:23:11.424Z,11.96
2023-04-18T13:25:38.713Z,11.01
2023-04-18T13:28:05.594Z,10.82
2023-04-18T13:30:32.395Z,10.94
2023-04-18T13:32:59.847Z,11.08
2023-04-18T13:35:29.750Z,11.08
2023-04-18T13:37:56.581Z,11.18
2023-04-18T13:40:25.604Z,11.16
2023-04-18T13:42:55.277Z,10.85
2023-04-18T13:45:22.428Z,10.82
2023-04-18T13:47:52.505Z,10.87
2023-04-18T13:50:22.924Z,10.59
2023-04-18T13:52:54.793Z,10.69
2023-04-18T13:55:22.067Z,10.85
2023-04-18T13:57:48.835Z,10.58
2023-04-18T14:00:17.134Z,10.61
2023-04-18T14:02:44.327Z,10.91
2023-04-18T14:05:11.493Z,11.51
2023-04-18T14:07:38.622Z,11.90
2023-04-18T14:10:06.128Z,11.91
2023-04-18T14:12:33.094Z,11.86
2023-04-18T14:14:59.955Z,11.70
2023-04-18T14:17:27.235Z,11.65
2023-04-18T14:19:54.355Z,11.33
2023-04-18T14:22:22.328Z,11.50
2023-04-18T14:24:52.402Z,11.55
2023-04-18T14:27:19.359Z,11.84
2023-04-18T14:29:49.504Z,12.19
2023-04-18T14:32:16.500Z,12.82
2023-04-18T14:34:43.677Z,13.61
2023-04-18T14:37:10.819Z,13.70
2023-04-18T14:39:38.161Z,13.72
2023-04-18T14:42:05.518Z,13.00
2023-04-18T14:44:33.713Z,12.41
2023-04-18T14:47:01.554Z,12.26
2023-04-18T14:49:28.442Z,12.02
2023-04-18T14:51:55.457Z,12.05
2023-04-18T14:54:23.480Z,12.44
2023-04-18T14:56:50.445Z,13.22
2023-04-18T14:59:17.665Z,13.71
2023-04-18T15:01:45.036Z,13.87
2023-04-18T15:04:12.083Z,13.63
2023-04-18T15:06:39.067Z,13.21
2023-04-18T15:09:06.675Z,12.60
2023-04-18T15:11:33.360Z,12.48
2023-04-18T15:14:00.141Z,12.74
2023-04-18T15:16:27.224Z,12.91
2023-04-18T15:18:54.008Z,13.01
2023-04-18T15:21:21.301Z,13.18
2023-04-18T15:23:48.230Z,12.83
2023-04-18T15:26:15.887Z,12.49
2023-04-18T15:28:43.418Z,12.46
2023-04-18T15:31:10.927Z,12.44
2023-04-18T15:33:38.707Z,12.54
2023-04-18T15:36:05.813Z,12.37
2023-04-18T15:38:34.204Z,12.34
2023-04-18T15:41:01.501Z,12.39
2023-04-18T15:43:29.337Z,12.13
2023-04-18T15:45:56.208Z,12.27
2023-04-18T15:48:34.375Z,12.25
2023-04-18T15:51:01.600Z,12.22
2023-04-18T15:53:28.981Z,12.03
2023-04-18T15:55:56.174Z,11.70
2023-04-18T15:58:24.036Z,11.83
2023-04-18T16:00:52.045Z,11.84
2023-04-18T16:03:19.766Z,11.70
2023-04-18T16:05:54.094Z,11.63
2023-04-18T16:08:23.285Z,11.63
2023-04-18T16:10:52.319Z,11.41
2023-04-18T16:13:21.323Z,11.45
2023-04-18T16:15:54.754Z,11.49
2023-04-18T16:18:25.393Z,11.36
2023-04-18T16:20:52.874Z,11.39
2023-04-18T16:23:20.537Z,11.26
2023-04-18T16:25:47.772Z,11.09
2023-04-18T16:28:14.937Z,11.09
2023-04-18T16:30:43.920Z,11.28
2023-04-18T16:33:11.127Z,11.04
2023-04-18T16:35:38.953Z,11.00
2023-04-18T16:38:06.478Z,10.91
2023-04-18T16:40:34.993Z,10.77
2023-04-18T16:43:02.507Z,10.68
2023-04-18T16:45:29.582Z,10.68
2023-04-18T16:48:00.067Z,10.59
2023-04-18T16:50:27.240Z,10.52
2023-04-18T16:52:54.340Z,10.53
2023-04-18T16:55:21.518Z,10.39
2023-04-18T16:57:48.979Z,10.37
2023-04-18T17:00:17.161Z,10.49
2023-04-18T17:02:44.326Z,10.51
2023-04-18T17:05:11.205Z,10.43
2023-04-18T17:07:39.965Z,10.47
2023-04-18T17:10:09.842Z,10.36
2023-04-18T17:12:37.574Z,10.27
2023-04-18T17:15:04.871Z,10.22
2023-04-18T17:17:31.701Z,10.29
2023-04-18T17:20:02.689Z,10.38
2023-04-18T17:22:29.660Z,10.21
2023-04-18T17:24:56.588Z,10.19
2023-04-18T17:27:23.867Z,10.12
2023-04-18T17:29:51.114Z,9.98
2023-04-18T17:32:18.323Z,9.96
2023-04-18T17:34:45.432Z,9.99
2023-04-18T17:37:12.306Z,9.97
2023-04-18T17:39:39.899Z,9.89
2023-04-18T17:42:06.779Z,9.82
2023-04-18T17:44:33.713Z,9.80
2023-04-18T17:47:02.210Z,9.74
2023-04-18T17:49:34.513Z,9.61
2023-04-18T17:52:02.680Z,9.42
2023-04-18T17:54:29.824Z,9.41
2023-04-18T17:56:57.811Z,9.37
2023-04-18T17:59:25.352Z,9.41
2023-04-18T18:01:53.248Z,9.34
2023-04-18T18:04:22.880Z,9.30
2023-04-18T18:06:56.379Z,9.25
2023-04-18T18:10:05.489Z,9.25
2023-04-18T18:12:41.982Z,9.06
2023-04-18T18:15:09.869Z,8.97
2023-04-18T18:17:36.757Z,9.02
2023-04-18T18:20:12.842Z,9.01
2023-04-18T18:22:39.509Z,8.93
2023-04-18T18:25:07.395Z,8.92
2023-04-18T18:27:34.100Z,8.90
2023-04-18T18:30:00.920Z,8.81
2023-04-18T18:32:27.775Z,8.80
2023-04-18T18:34:54.623Z,8.72
2023-04-18T18:37:26.628Z,8.75
2023-04-18T18:39:56.564Z,8.79
2023-04-18T18:42:24.202Z,8.81
2023-04-18T18:44:51.396Z,8.73
2023-04-18T18:47:19.152Z,8.75
2023-04-18T18:49:46.707Z,8.70
2023-04-18T18:52:13.656Z,8.67
2023-04-18T18:54:40.923Z,8.63
2023-04-18T18:57:08.808Z,8.56
2023-04-18T18:59:36.068Z,8.55
2023-04-18T19:02:03.030Z,8.62
2023-04-18T19:04:30.413Z,8.57
2023-04-18T19:06:59.925Z,8.57
2023-04-18T19:09:26.826Z,8.50
2023-04-18T19:11:55.173Z,8.46
2023-04-18T19:14:22.032Z,8.44
2023-04-18T19:16:49.129Z,8.33
2023-04-18T19:19:17.505Z,8.33
2023-04-18T19:21:47.390Z,8.21
2023-04-18T19:24:14.685Z,8.20
2023-04-18T19:26:42.101Z,8.18
2023-04-18T19:29:10.780Z,8.08
2023-04-18T19:31:38.016Z,8.02
2023-04-18T19:34:05.501Z,7.99
2023-04-18T19:36:32.707Z,7.90
2023-04-18T19:38:59.518Z,7.88
2023-04-18T19:41:27.146Z,7.88
2023-04-18T19:43:57.814Z,7.73
2023-04-18T19:46:24.830Z,7.62
2023-04-18T19:48:51.880Z,7.58
2023-04-18T19:51:18.658Z,7.64
2023-04-18T19:53:45.847Z,7.56
2023-04-18T19:56:14.414Z,7.58
2023-04-18T19:58:49.582Z,7.58
2023-04-18T20:01:18.655Z,7.62
2023-04-18T20:03:46.965Z,7.56
2023-04-18T20:06:14.182Z,7.64
2023-04-18T20:08:47.367Z,7.71
2023-04-18T20:11:14.369Z,7.60
2023-04-18T20:13:42.081Z,7.66
2023-04-18T20:16:11.196Z,7.72
2023-04-18T20:18:41.722Z,7.80
2023-04-18T20:21:11.068Z,7.69
2023-04-18T20:23:38.289Z,7.65
2023-04-18T20:26:05.144Z,7.43
2023-04-18T20:28:36.446Z,7.57
2023-04-18T20:31:03.620Z,7.54
2023-04-18T20:33:30.280Z,7.51
2023-04-18T20:35:58.911Z,7.43
2023-04-18T20:38:30.470Z,7.47
2023-04-18T20:40:58.805Z,7.54
2023-04-18T20:43:26.052Z,7.51
2023-04-18T20:45:53.865Z,7.55
2023-04-18T20:48:20.982Z,7.45
2023-04-18T20:50:51.420Z,7.43
2023-04-18T20:53:20.747Z,7.38
2023-04-18T20:55:48.753Z,7.41
2023-04-18T20:58:15.843Z,7.44
2023-04-18T21:00:44.674Z,7.51
2023-04-18T21:03:15.542Z,7.52
2023-04-18T21:05:44.180Z,7.56
2023-04-18T21:08:11.490Z,7.61
2023-04-18T21:10:38.454Z,7.53
2023-04-18T21:13:05.275Z,7.50
2023-04-18T21:15:32.071Z,7.53
2023-04-18T21:17:59.814Z,7.49
2023-04-18T21:20:26.564Z,7.47
2023-04-18T21:22:53.533Z,7.43
2023-04-18T21:25:21.475Z,7.35
2023-04-18T21:27:50.669Z,7.41
2023-04-18T21:30:18.086Z,7.50
2023-04-18T21:32:46.022Z,7.48
2023-04-18T21:35:13.336Z,7.55
2023-04-18T21:37:40.269Z,7.62
2023-04-18T21:40:07.937Z,7.57
2023-04-18T21:42:35.715Z,7.64
2023-04-18T21:45:02.659Z,7.67
2023-04-18T21:47:29.542Z,7.66
2023-04-18T21:49:56.532Z,7.71
2023-04-18T21:52:23.293Z,7.70
2023-04-18T21:54:49.988Z,7.63
2023-04-18T21:57:16.760Z,7.64
2023-04-18T21:59:43.526Z,7.62
2023-04-18T22:02:10.545Z,7.61
2023-04-18T22:04:38.118Z,7.58
2023-04-18T22:07:04.973Z,7.64
2023-04-18T22:09:36.264Z,7.54
2023-04-18T22:12:05.651Z,7.51
2023-04-18T22:14:32.381Z,7.57
2023-04-18T22:16:59.365Z,7.60
2023-04-18T22:19:27.584Z,7.65
2023-04-18T22:21:54.263Z,7.62
2023-04-18T22:24:22.123Z,7.65
2023-04-18T22:26:49.990Z,7.57
2023-04-18T22:29:16.666Z,7.57
2023-04-18T22:31:43.802Z,7.61
2023-04-18T22:34:10.686Z,7.62
2023-04-18T22:36:37.837Z,7.58
2023-04-18T22:39:04.690Z,7.57
2023-04-18T22:41:31.406Z,7.57
2023-04-18T22:43:58.101Z,7.44
2023-04-18T22:46:24.816Z,7.45
2023-04-18T22:48:51.542Z,7.47
2023-04-18T22:51:18.230Z,7.61
2023-04-18T22:53:47.120Z,7.58
2023-04-18T22:56:13.615Z,7.57
2023-04-18T22:58:40.108Z,7.45
2023-04-18T23:01:06.664Z,7.50
2023-04-18T23:03:36.591Z,7.49
2023-04-18T23:06:03.296Z,7.45
2023-04-18T23:08:29.794Z,7.28
2023-04-18T23:10:56.326Z,7.34
2023-04-18T23:13:22.879Z,7.38
2023-04-18T23:15:51.658Z,7.31
2023-04-18T23:18:18.166Z,7.31
2023-04-18T23:20:46.975Z,7.34
2023-04-18T23:23:13.493Z,7.38
2023-04-18T23:25:40.061Z,7.33
2023-04-18T23:28:08.829Z,7.29
2023-04-18T23:30:36.802Z,7.28
2023-04-18T23:33:03.531Z,7.36
2023-04-18T23:35:30.122Z,7.25
2023-04-18T23:37:57.179Z,7.32
2023-04-18T23:40:23.748Z,7.39
2023-04-18T23:42:50.401Z,7.25
2023-04-18T23:45:17.002Z,7.25
2023-04-18T23:47:45.897Z,7.30
2023-04-18T23:50:14.783Z,7.30
2023-04-18T23:52:41.307Z,7.24
2023-04-18T23:55:08.209Z,7.29
2023-04-18T23:57:34.709Z,7.34
